»·PEaware :: N516TT 74S-KYKM

N516TT :: 74S-KYKM

FLIGHT INFORMATION

Flight Status: Arrived
Operator: Privately registered:
United States
More flights under this callsign
Pilot: Gareth S. (19921)
Aircraft: Unknown
(DA62)
More flights by this aircraft type
Origin: 74S Anacortes
United States
Destination: KYKM Yakima Air Term/Mcallister
United States
More flights between these airports :: More routes between these airports
Route: +PAE V23 SEA V4 YKM
File this flight plan on PilotEdge
Remarks:
Altitude:
(Current/Filed)
10,000ft
Speed:
(Current/Filed)
150kts
Departed: 14-Aug-19 01:58 PM
Arrived: 14-Aug-19 03:15 PM
Distance/Time
Traveled:
144nm/1:17
Distance/Time
To Go:
Arrived

Flight Plot

Page will automatically refresh every two minutes.


Map Options




Map Legend


Flown Route
Filed Route
Departure Airport
Arrival Airport
Navaid (VOR, NDB)
Fix

Horizontal Profiles

Position Reports

Time Latitude Longitude Heading Altitude Ground
Speed
14-Aug-19 13:34 48.497680 -122.661551 0 249ft 0kts
14-Aug-19 13:35 48.497680 -122.661551 289 249ft 0kts
14-Aug-19 13:36 48.497680 -122.661551 289 249ft 0kts
14-Aug-19 13:37 48.497680 -122.661551 289 249ft 0kts
14-Aug-19 13:38 48.497680 -122.661551 289 249ft 0kts
14-Aug-19 13:39 48.497680 -122.661551 289 249ft 0kts
14-Aug-19 13:40 48.497680 -122.661551 289 249ft 0kts
14-Aug-19 13:41 48.497680 -122.661551 289 249ft 0kts
14-Aug-19 13:42 48.497680 -122.661551 289 249ft 0kts
14-Aug-19 13:43 48.497680 -122.661551 289 249ft 0kts
14-Aug-19 13:44 48.497680 -122.661551 289 249ft 0kts
14-Aug-19 13:45 48.497680 -122.661551 289 249ft 0kts
14-Aug-19 13:46 48.497680 -122.661551 289 249ft 0kts
14-Aug-19 13:47 48.497680 -122.661551 289 249ft 0kts
14-Aug-19 13:48 48.497680 -122.661551 289 249ft 0kts
14-Aug-19 13:49 48.497680 -122.661551 289 249ft 0kts
14-Aug-19 13:50 48.497680 -122.661551 289 249ft 0kts
14-Aug-19 13:51 48.497680 -122.661551 289 249ft 0kts
14-Aug-19 13:52 48.497680 -122.661551 289 249ft 0kts
14-Aug-19 13:53 48.497680 -122.661551 289 249ft 0kts
14-Aug-19 13:54 48.497680 -122.661551 289 249ft 0kts
14-Aug-19 13:55 48.496146 -122.663086 196 246ft 12kts
14-Aug-19 13:56 48.494566 -122.664179 283 248ft 0kts
14-Aug-19 13:57 48.505005 -122.658577 21 393ft 100kts
14-Aug-19 13:58 48.535473 -122.638714 41 1079ft 130kts
14-Aug-19 13:59 48.538331 -122.585906 92 2016ft 126kts
14-Aug-19 14:00 48.536811 -122.534093 92 3006ft 121kts
14-Aug-19 14:01 48.535461 -122.478203 92 3372ft 153kts
14-Aug-19 14:02 48.533662 -122.409831 92 3060ft 167kts
14-Aug-19 14:03 48.519314 -122.356424 169 3068ft 146kts
14-Aug-19 14:04 48.480895 -122.346496 172 3062ft 138kts
14-Aug-19 14:05 48.445407 -122.337313 172 3501ft 105kts
14-Aug-19 14:06 48.422721 -122.330545 168 4200ft 75kts
14-Aug-19 14:07 48.429810 -122.311202 20 4215ft 120kts
14-Aug-19 14:08 48.460448 -122.287781 33 4371ft 126kts
14-Aug-19 14:09 48.474034 -122.314928 245 3876ft 157kts
14-Aug-19 14:10 48.450050 -122.361396 239 3499ft 157kts
14-Aug-19 14:11 48.450811 -122.415827 276 3686ft 108kts
14-Aug-19 14:12 48.447375 -122.461441 247 4198ft 121kts
14-Aug-19 14:13 48.417699 -122.484789 196 4984ft 117kts
14-Aug-19 14:14 48.386458 -122.500222 139 5106ft 164kts
14-Aug-19 14:15 48.364123 -122.460408 131 6424ft 106kts
14-Aug-19 14:16 48.339108 -122.422193 127 6913ft 122kts
14-Aug-19 14:17 48.316401 -122.384682 129 7641ft 133kts
14-Aug-19 14:18 48.301672 -122.334830 141 8192ft 150kts
14-Aug-19 14:19 48.265900 -122.327490 172 9231ft 125kts
14-Aug-19 14:20 48.230757 -122.318290 173 10111ft 131kts
14-Aug-19 14:21 48.194865 -122.308490 173 10982ft 135kts
14-Aug-19 14:22 48.155008 -122.297108 173 11237ft 162kts
14-Aug-19 14:23 48.111181 -122.284496 173 11475ft 170kts
14-Aug-19 14:24 48.062364 -122.271199 175 11308ft 172kts
14-Aug-19 14:25 48.015307 -122.264343 176 11030ft 174kts
14-Aug-19 14:26 47.969410 -122.261591 182 11005ft 161kts
14-Aug-19 14:27 47.927693 -122.260261 183 10998ft 158kts
14-Aug-19 14:28 47.887204 -122.273750 186 10989ft 157kts
14-Aug-19 14:30 47.844425 -122.276395 186 10982ft 157kts
14-Aug-19 14:31 47.802357 -122.279642 186 10987ft 158kts
14-Aug-19 14:32 47.760305 -122.283036 186 10983ft 163kts
14-Aug-19 14:33 47.720106 -122.286277 186 10982ft 164kts
14-Aug-19 14:34 47.678533 -122.289639 186 10980ft 164kts
14-Aug-19 14:35 47.636663 -122.293015 186 10982ft 164kts
14-Aug-19 14:36 47.593476 -122.296510 186 10980ft 164kts
14-Aug-19 14:37 47.549761 -122.300034 186 10981ft 164kts
14-Aug-19 14:38 47.505753 -122.303576 186 11000ft 164kts
14-Aug-19 14:39 47.459002 -122.307336 186 10995ft 164kts
14-Aug-19 14:40 47.421118 -122.273614 129 11008ft 174kts
14-Aug-19 14:41 47.393651 -122.215651 126 10996ft 176kts
14-Aug-19 14:42 47.366558 -122.155900 126 10987ft 177kts
14-Aug-19 14:43 47.340400 -122.098000 126 11008ft 176kts
14-Aug-19 14:44 47.313364 -122.038250 126 11031ft 176kts
14-Aug-19 14:45 47.286441 -121.978812 126 11060ft 175kts
14-Aug-19 14:46 47.259143 -121.918742 126 11071ft 177kts
14-Aug-19 14:46 47.236398 -121.868786 126 11087ft 177kts
14-Aug-19 14:48 47.205206 -121.800344 126 11083ft 178kts
14-Aug-19 14:49 47.177584 -121.739890 126 11089ft 177kts
14-Aug-19 14:49 47.154344 -121.689196 126 11056ft 180kts
14-Aug-19 14:51 47.121891 -121.618529 126 11045ft 179kts
14-Aug-19 14:51 47.098599 -121.567813 126 11052ft 177kts
14-Aug-19 14:53 47.067303 -121.500019 126 11059ft 178kts
14-Aug-19 14:54 47.039455 -121.439757 126 11047ft 178kts
14-Aug-19 14:54 47.016242 -121.389721 126 11043ft 178kts
14-Aug-19 14:55 46.989463 -121.331959 127 11044ft 178kts
14-Aug-19 14:56 46.961641 -121.272192 127 11042ft 178kts
14-Aug-19 14:57 46.934643 -121.214235 127 11043ft 177kts
14-Aug-19 14:58 46.906683 -121.154392 127 11023ft 178kts
14-Aug-19 14:59 46.880239 -121.097841 127 10986ft 179kts
14-Aug-19 15:00 46.851904 -121.037764 127 11042ft 174kts
14-Aug-19 15:01 46.824000 -120.978343 126 10720ft 188kts
14-Aug-19 15:02 46.795056 -120.916785 126 9413ft 191kts
14-Aug-19 15:03 46.764972 -120.853838 126 8105ft 187kts
14-Aug-19 15:04 46.735522 -120.788155 116 5597ft 190kts
14-Aug-19 15:05 46.713753 -120.723464 119 3890ft 159kts
14-Aug-19 15:06 46.691638 -120.667623 117 2164ft 159kts
14-Aug-19 15:07 46.676046 -120.623621 118 1802ft 100kts
14-Aug-19 15:08 46.663542 -120.585752 114 2016ft 104kts
14-Aug-19 15:09 46.651546 -120.545050 114 2110ft 110kts
14-Aug-19 15:10 46.628853 -120.515842 146 2208ft 109kts
14-Aug-19 15:11 46.602609 -120.494843 156 2277ft 98kts
14-Aug-19 15:12 46.580425 -120.505970 238 1559ft 97kts
14-Aug-19 15:13 46.567909 -120.537979 235 1064ft 78kts
14-Aug-19 15:14 46.567009 -120.542835 63 1070ft 10kts
14-Aug-19 15:15 46.568956 -120.538020 57 1064ft 14kts
14-Aug-19 15:16 46.569913 -120.537525 86 1064ft 0kts
14-Aug-19 15:17 46.657209 -120.564827 115 2069ft 109kts
14-Aug-19 15:18 46.567948 -120.537884 235 1064ft 78kts

Navigation Log

Ident Type
Flight plan parsing failed, navigation log unavailable